Time;durP1;ratioP1;P1;durP2;ratioP2;P2;SDS_P1;SDS_P2;PMS_P1;PMS_P2;Temp;Humidity;BMP_temperature;BMP_pressure;BME280_temperature;BME280_humidity;BME280_pressure;Samples;Min_cycle;Max_cycle;Signal;HPM_P1;HPM_P2
2022/04/16 00:00:18;;;;;;;8.50;4.95;;;8.00;70.30;;;;;;2374028;56;21644;-77
2022/04/16 00:02:45;;;;;;;12.20;5.68;;;8.00;70.40;;;;;;2373113;56;21194;-77
2022/04/16 00:05:14;;;;;;;7.72;5.20;;;8.00;71.50;;;;;;2373286;56;21043;-77
2022/04/16 00:07:41;;;;;;;7.97;5.30;;;7.90;70.80;;;;;;2373702;56;21058;-77
2022/04/16 00:10:10;;;;;;;7.07;4.80;;;7.90;70.90;;;;;;2373525;56;21643;-77
2022/04/16 00:12:37;;;;;;;8.43;5.15;;;7.80;71.10;;;;;;2373700;56;21050;-77
2022/04/16 00:15:06;;;;;;;7.97;5.28;;;7.80;72.00;;;;;;2373848;56;21046;-74
2022/04/16 00:17:36;;;;;;;12.27;4.87;;;7.80;71.10;;;;;;2373693;56;21047;-74
2022/04/16 00:20:09;;;;;;;9.48;4.65;;;7.80;71.20;;;;;;2372950;56;21600;-74
2022/04/16 00:22:37;;;;;;;6.28;4.35;;;7.70;71.20;;;;;;2373674;56;21110;-77
2022/04/16 00:25:07;;;;;;;7.25;4.37;;;7.70;71.30;;;;;;2373763;56;21545;-77
2022/04/16 00:27:34;;;;;;;7.90;5.05;;;7.70;71.50;;;;;;2626895;52;21134;-76
2022/04/16 00:30:02;;;;;;;9.30;5.07;;;7.70;71.30;;;;;;2374149;56;21453;-76
2022/04/16 00:32:30;;;;;;;8.93;4.57;;;7.70;71.30;;;;;;2373407;56;21043;-76
2022/04/16 00:34:57;;;;;;;8.68;4.32;;;7.70;71.20;;;;;;2373282;56;21038;-78
2022/04/16 00:37:24;;;;;;;6.20;4.43;;;7.70;71.10;;;;;;2371724;56;21589;-76
2022/04/16 00:39:53;;;;;;;6.45;4.55;;;7.60;71.10;;;;;;2373311;56;21130;-76
2022/04/16 00:42:21;;;;;;;8.18;4.07;;;7.60;71.20;;;;;;2373286;56;21193;-77
2022/04/16 00:44:48;;;;;;;6.95;4.53;;;7.60;71.10;;;;;;2372716;56;21023;-77
2022/04/16 00:47:15;;;;;;;7.85;4.47;;;7.60;71.00;;;;;;2624993;52;21564;-76
2022/04/16 00:49:43;;;;;;;9.00;4.62;;;7.60;71.00;;;;;;2372605;56;21035;-76
2022/04/16 00:52:10;;;;;;;11.45;5.32;;;7.50;70.70;;;;;;2372649;56;21050;-76
2022/04/16 00:54:37;;;;;;;6.20;4.10;;;7.50;70.90;;;;;;2625672;52;21082;-76
2022/04/16 00:57:06;;;;;;;13.25;4.57;;;7.40;70.60;;;;;;2372074;56;21201;-76
2022/04/16 00:59:33;;;;;;;8.40;5.20;;;7.40;70.70;;;;;;2373055;56;21055;-76
2022/04/16 01:02:00;;;;;;;7.60;4.62;;;7.40;70.60;;;;;;2372317;56;21541;-77
2022/04/16 01:04:28;;;;;;;5.25;3.58;;;7.40;70.20;;;;;;2372836;56;21149;-77
2022/04/16 01:06:55;;;;;;;8.77;4.30;;;7.40;69.90;;;;;;2371805;56;21621;-76
2022/04/16 01:09:22;;;;;;;5.85;3.67;;;7.50;69.50;;;;;;2372804;56;21038;-76
2022/04/16 01:11:50;;;;;;;11.05;4.25;;;7.40;69.30;;;;;;2625366;52;21546;-76
2022/04/16 01:14:19;;;;;;;5.68;4.07;;;7.40;69.10;;;;;;2372160;56;21039;-77
2022/04/16 01:16:46;;;;;;;7.82;4.35;;;7.40;69.00;;;;;;2624967;52;21039;-76
2022/04/16 01:19:14;;;;;;;6.82;3.85;;;7.40;69.00;;;;;;2372488;56;21126;-76
2022/04/16 01:21:43;;;;;;;5.47;4.07;;;7.40;68.90;;;;;;2372372;56;21043;-77
2022/04/16 01:24:11;;;;;;;8.07;4.37;;;7.40;68.70;;;;;;2626137;52;21050;-76
2022/04/16 01:26:39;;;;;;;9.35;4.00;;;7.30;68.50;;;;;;2371473;56;21054;-76
2022/04/16 01:29:06;;;;;;;8.77;3.58;;;7.30;68.50;;;;;;2372749;56;21046;-76
2022/04/16 01:31:33;;;;;;;5.90;3.97;;;7.30;68.50;;;;;;2370996;56;21114;-76
2022/04/16 01:34:01;;;;;;;5.93;3.83;;;7.30;68.50;;;;;;2625894;52;21447;-76
2022/04/16 01:36:30;;;;;;;7.70;4.00;;;7.30;68.50;;;;;;2372243;56;21035;-77
2022/04/16 01:38:57;;;;;;;6.22;4.28;;;7.20;68.10;;;;;;2372739;56;21057;-77
2022/04/16 01:41:25;;;;;;;4.80;3.75;;;7.20;67.80;;;;;;2372575;56;21042;-76
2022/04/16 01:43:53;;;;;;;6.57;4.35;;;7.20;67.70;;;;;;2372584;56;21118;-76
2022/04/16 01:46:21;;;;;;;8.63;4.05;;;7.20;67.90;;;;;;2371563;56;21688;-76
2022/04/16 01:48:49;;;;;;;5.57;3.62;;;7.10;67.80;;;;;;2372210;56;21031;-75
2022/04/16 01:51:17;;;;;;;8.05;4.15;;;7.10;67.80;;;;;;2372162;56;21138;-76
2022/04/16 01:53:45;;;;;;;5.80;3.95;;;7.10;67.60;;;;;;2624793;52;21047;-75
2022/04/16 01:56:13;;;;;;;5.10;3.50;;;7.10;67.20;;;;;;2372184;56;21051;-75
2022/04/16 01:58:41;;;;;;;5.22;3.78;;;7.00;67.10;;;;;;2626232;52;21090;-75
2022/04/16 02:01:08;;;;;;;4.78;3.58;;;7.00;67.40;;;;;;2373070;56;21051;-75
2022/04/16 02:03:36;;;;;;;7.22;3.87;;;7.00;67.00;;;;;;2625357;52;21134;-75
2022/04/16 02:06:04;;;;;;;5.43;3.72;;;6.90;67.00;;;;;;2372162;56;21060;-76
2022/04/16 02:08:31;;;;;;;6.15;4.00;;;6.80;68.00;;;;;;2372368;56;21043;-76
2022/04/16 02:10:59;;;;;;;8.48;4.20;;;6.80;67.60;;;;;;2371564;56;21518;-75
2022/04/16 02:13:26;;;;;;;5.55;3.85;;;6.80;67.90;;;;;;2372487;56;21504;-76
2022/04/16 02:15:54;;;;;;;6.10;3.97;;;6.70;67.90;;;;;;2372604;56;21101;-75
2022/04/16 02:18:22;;;;;;;5.37;3.60;;;6.70;68.10;;;;;;2372008;56;21027;-75
2022/04/16 02:20:50;;;;;;;8.70;3.65;;;6.60;68.50;;;;;;2371937;56;21047;-76
2022/04/16 02:23:17;;;;;;;8.80;4.37;;;6.60;68.60;;;;;;2371482;56;21719;-75
2022/04/16 02:25:44;;;;;;;5.22;3.67;;;6.60;68.70;;;;;;2371792;56;21039;-75
2022/04/16 02:28:11;;;;;;;5.62;3.85;;;6.50;68.90;;;;;;2372622;56;21046;-75
2022/04/16 02:30:40;;;;;;;5.22;3.53;;;6.50;69.10;;;;;;2372522;56;21102;-75
2022/04/16 02:33:10;;;;;;;6.60;4.25;;;6.50;69.30;;;;;;2372330;56;21472;-75
2022/04/16 02:35:38;;;;;;;5.97;4.37;;;6.40;69.50;;;;;;2372345;56;21545;-76
2022/04/16 02:38:06;;;;;;;6.68;4.43;;;6.40;69.50;;;;;;2372512;56;21066;-75
2022/04/16 02:40:33;;;;;;;6.50;4.40;;;6.40;69.20;;;;;;2371543;56;21107;-75
2022/04/16 02:43:00;;;;;;;4.72;3.78;;;6.40;68.80;;;;;;2372401;56;21043;-75
2022/04/16 02:48:13;;;;;;;7.05;4.15;;;6.40;68.00;;;;;;2372095;56;21078;-76
2022/04/16 02:50:41;;;;;;;8.90;4.80;;;6.40;67.60;;;;;;2372200;56;21209;-76
2022/04/16 02:53:09;;;;;;;6.20;4.10;;;6.30;67.40;;;;;;2372661;56;21419;-75
2022/04/16 02:55:36;;;;;;;6.82;3.87;;;6.30;67.30;;;;;;2372105;56;21110;-75
2022/04/16 02:58:03;;;;;;;5.05;3.83;;;6.30;67.10;;;;;;2371289;56;21129;-75
2022/04/16 03:00:31;;;;;;;4.75;3.62;;;6.20;67.00;;;;;;2372471;56;22118;-75
2022/04/16 03:02:58;;;;;;;5.43;3.35;;;6.20;67.20;;;;;;2372238;56;21051;-75
2022/04/16 03:05:25;;;;;;;4.82;3.20;;;6.20;67.30;;;;;;2371786;56;21615;-75
2022/04/16 03:07:52;;;;;;;5.47;3.62;;;6.20;67.30;;;;;;2372330;56;21131;-76
2022/04/16 03:10:20;;;;;;;6.05;3.17;;;6.10;67.40;;;;;;2625997;52;21035;-75
2022/04/16 03:12:48;;;;;;;6.25;3.53;;;6.10;67.50;;;;;;2371739;56;22184;-75
2022/04/16 03:18:05;;;;;;;4.70;3.65;;;6.00;67.30;;;;;;2372530;56;21026;-75
2022/04/16 03:20:32;;;;;;;5.03;3.50;;;6.00;67.20;;;;;;2372295;56;21048;-75
2022/04/16 03:23:00;;;;;;;5.78;3.50;;;6.00;67.20;;;;;;2372489;56;21047;-75
2022/04/16 03:25:28;;;;;;;5.87;3.60;;;5.90;67.30;;;;;;2624931;52;21106;-76
2022/04/16 03:27:56;;;;;;;6.15;4.37;;;5.90;67.50;;;;;;2372488;56;21063;-75
2022/04/16 03:30:25;;;;;;;6.72;3.95;;;5.90;67.50;;;;;;2371861;56;21127;-75
2022/04/16 03:32:53;;;;;;;5.87;3.47;;;5.90;67.50;;;;;;2372089;56;21051;-75
2022/04/16 03:35:22;;;;;;;5.30;3.45;;;5.80;67.40;;;;;;2372349;56;21114;-76
2022/04/16 03:37:50;;;;;;;4.93;3.50;;;5.80;67.50;;;;;;2372404;56;21039;-76
2022/04/16 03:40:17;;;;;;;5.70;3.67;;;5.80;67.40;;;;;;2372461;56;21380;-75
2022/04/16 03:42:48;;;;;;;7.57;3.80;;;5.80;67.30;;;;;;2372348;56;21189;-75
2022/04/16 03:45:20;;;;;;;4.05;3.17;;;5.70;67.10;;;;;;2371531;56;21051;-77
2022/04/16 03:47:48;;;;;;;5.50;3.62;;;5.70;67.50;;;;;;2372711;56;21055;-76
2022/04/16 03:50:16;;;;;;;8.10;3.75;;;5.70;67.10;;;;;;2372355;56;21055;-77
2022/04/16 03:52:44;;;;;;;6.20;3.55;;;5.60;67.10;;;;;;2371904;56;21059;-76
2022/04/16 04:00:45;;;;;;;4.68;3.53;;;5.60;67.40;;;;;;2372881;56;21007;-76
2022/04/16 04:03:12;;;;;;;4.15;3.10;;;5.60;67.40;;;;;;2371451;56;21062;-75
2022/04/16 04:05:40;;;;;;;5.22;3.78;;;5.50;67.40;;;;;;2371109;56;21653;-75
2022/04/16 04:08:09;;;;;;;6.22;3.42;;;5.50;67.50;;;;;;2372686;56;21383;-76
2022/04/16 04:10:36;;;;;;;4.75;3.37;;;5.40;67.40;;;;;;2372310;56;21137;-75
2022/04/16 04:13:04;;;;;;;6.15;3.83;;;5.40;67.40;;;;;;2372798;53;21022;-76
2022/04/16 04:15:31;;;;;;;5.35;3.90;;;5.40;67.40;;;;;;2379936;56;21095;-76
2022/04/16 04:17:59;;;;;;;6.45;3.65;;;5.40;66.90;;;;;;2356469;57;21507;-76
2022/04/16 04:20:28;;;;;;;6.07;3.30;;;5.40;66.40;;;;;;2357636;57;21032;-76
2022/04/16 04:22:55;;;;;;;5.35;3.30;;;5.40;66.50;;;;;;2357001;57;21032;-75
2022/04/16 04:25:24;;;;;;;5.05;3.80;;;5.30;66.90;;;;;;2357281;57;21028;-77
2022/04/16 04:27:52;;;;;;;6.03;3.37;;;5.30;67.10;;;;;;2357320;57;21060;-77
2022/04/16 04:30:21;;;;;;;7.82;3.70;;;5.30;67.10;;;;;;2607042;53;21115;-76
2022/04/16 04:32:48;;;;;;;7.12;4.05;;;5.20;67.70;;;;;;2357670;57;21024;-77
2022/04/16 04:35:16;;;;;;;5.72;3.80;;;5.30;68.00;;;;;;2356843;57;21044;-76
2022/04/16 04:37:43;;;;;;;5.90;3.72;;;5.20;68.40;;;;;;2356927;57;21032;-77
2022/04/16 04:40:11;;;;;;;5.45;3.67;;;5.20;68.90;;;;;;2357380;57;21040;-77
2022/04/16 04:42:39;;;;;;;7.93;4.32;;;5.20;69.30;;;;;;2357567;57;21557;-77
2022/04/16 04:45:10;;;;;;;6.18;3.85;;;5.20;69.70;;;;;;2357083;57;21036;-76
2022/04/16 04:47:37;;;;;;;6.85;4.68;;;5.20;70.10;;;;;;2356997;57;21028;-77
2022/04/16 04:50:07;;;;;;;6.90;4.18;;;5.20;70.00;;;;;;2357707;57;21044;-76
2022/04/16 04:52:37;;;;;;;6.90;4.12;;;5.20;70.50;;;;;;2357411;57;21686;-77
2022/04/16 04:55:09;;;;;;;5.47;4.32;;;5.20;69.60;;;;;;2357171;57;21103;-77
2022/04/16 04:57:36;;;;;;;6.72;4.35;;;5.20;69.60;;;;;;2606812;53;21020;-77
2022/04/16 05:00:05;;;;;;;5.25;4.05;;;5.20;69.30;;;;;;2357569;57;21099;-77
2022/04/16 05:02:40;;;;;;;5.37;3.92;;;5.30;69.20;;;;;;2356868;57;21068;-77
2022/04/16 05:05:08;;;;;;;8.40;4.10;;;5.20;69.00;;;;;;2357375;57;21107;-77
2022/04/16 05:07:36;;;;;;;8.60;4.65;;;5.30;68.50;;;;;;2606911;53;21156;-77
2022/04/16 05:10:04;;;;;;;5.15;4.05;;;5.30;68.20;;;;;;2357549;57;21498;-77
2022/04/16 05:12:31;;;;;;;7.68;4.62;;;5.30;67.30;;;;;;2357395;57;21021;-77
2022/04/16 05:14:58;;;;;;;7.05;4.30;;;5.30;67.20;;;;;;2357087;57;21095;-77
2022/04/16 05:17:26;;;;;;;7.22;4.30;;;5.20;67.30;;;;;;2356707;57;21036;-76
2022/04/16 05:19:53;;;;;;;7.20;4.45;;;5.30;67.40;;;;;;2606159;53;21100;-75
2022/04/16 05:22:20;;;;;;;8.63;4.65;;;5.20;67.30;;;;;;2607078;53;21130;-76
2022/04/16 05:24:47;;;;;;;8.20;4.40;;;5.20;67.20;;;;;;2357751;57;21107;-77
2022/04/16 05:27:15;;;;;;;8.15;4.50;;;5.30;67.70;;;;;;2606374;52;21084;-76
2022/04/16 05:29:56;;;;;;;7.32;4.70;;;5.20;68.00;;;;;;2357745;57;21036;-76
2022/04/16 05:32:24;;;;;;;5.53;4.45;;;5.30;68.00;;;;;;2357362;57;21060;-77
2022/04/16 05:34:55;;;;;;;6.82;4.25;;;5.20;67.40;;;;;;2356293;57;21091;-77
2022/04/16 05:37:22;;;;;;;6.47;4.62;;;5.20;66.80;;;;;;2356589;57;21091;-77
2022/04/16 05:39:50;;;;;;;9.35;4.85;;;5.30;66.70;;;;;;2357365;57;21021;-77
2022/04/16 05:42:18;;;;;;;11.18;4.97;;;5.20;66.60;;;;;;2357477;57;21013;-77
2022/04/16 05:44:45;;;;;;;7.22;4.87;;;5.20;67.10;;;;;;2357374;57;21112;-76
2022/04/16 05:47:12;;;;;;;6.68;4.90;;;5.20;67.70;;;;;;2356497;57;21016;-77
2022/04/16 05:49:40;;;;;;;9.75;5.20;;;5.20;68.20;;;;;;2357514;57;21359;-76
2022/04/16 05:52:09;;;;;;;10.95;5.60;;;5.30;68.60;;;;;;2355417;57;21621;-76
2022/04/16 05:54:37;;;;;;;8.55;5.57;;;5.30;68.90;;;;;;2607747;53;21025;-76
2022/04/16 05:57:06;;;;;;;10.85;5.55;;;5.30;69.00;;;;;;2605858;52;21195;-75
2022/04/16 05:59:34;;;;;;;7.35;5.10;;;5.30;69.30;;;;;;2357715;57;21028;-77
2022/04/16 06:02:02;;;;;;;6.68;4.62;;;5.40;69.80;;;;;;2357532;57;21494;-76
2022/04/16 06:04:30;;;;;;;6.85;4.72;;;5.40;70.40;;;;;;2357754;57;21032;-76
2022/04/16 06:06:57;;;;;;;9.25;5.72;;;5.40;70.90;;;;;;2356861;57;21538;-76
2022/04/16 06:09:25;;;;;;;8.23;5.18;;;5.40;71.20;;;;;;2355775;57;21024;-77
2022/04/16 06:11:52;;;;;;;8.82;5.95;;;5.50;71.30;;;;;;2356751;57;21024;-77
2022/04/16 06:14:20;;;;;;;9.52;5.80;;;5.50;71.70;;;;;;2607237;53;21044;-76
2022/04/16 06:16:47;;;;;;;6.85;4.82;;;5.60;72.00;;;;;;2356310;57;21282;-76
2022/04/16 06:19:15;;;;;;;9.77;5.55;;;5.60;72.40;;;;;;2357177;57;21044;-77
2022/04/16 06:21:42;;;;;;;7.07;4.80;;;5.70;72.90;;;;;;2356927;57;21622;-77
2022/04/16 06:24:10;;;;;;;8.30;4.68;;;5.70;73.40;;;;;;2357111;57;21040;-76
2022/04/16 06:26:37;;;;;;;9.93;4.75;;;5.80;73.60;;;;;;2356559;57;21028;-77
2022/04/16 06:29:05;;;;;;;10.20;5.30;;;5.80;73.50;;;;;;2357459;57;21108;-76
2022/04/16 06:31:33;;;;;;;7.05;4.75;;;5.90;73.50;;;;;;2356965;57;21079;-76
2022/04/16 06:34:00;;;;;;;5.43;4.30;;;6.00;73.80;;;;;;2357578;57;21100;-77
2022/04/16 06:36:28;;;;;;;5.75;3.37;;;6.00;74.20;;;;;;2356747;57;21044;-76
2022/04/16 06:38:55;;;;;;;5.78;3.60;;;6.10;74.50;;;;;;2357268;57;21044;-76
2022/04/16 06:41:23;;;;;;;9.40;4.47;;;6.10;74.80;;;;;;2357676;57;21372;-76
2022/04/16 06:43:51;;;;;;;8.63;3.58;;;6.20;75.10;;;;;;2357097;57;21649;-77
2022/04/16 06:46:18;;;;;;;6.18;3.70;;;6.20;75.60;;;;;;2606602;52;21088;-76
2022/04/16 06:48:46;;;;;;;5.43;4.50;;;6.30;76.20;;;;;;2357561;57;21044;-76
2022/04/16 06:51:13;;;;;;;5.70;3.80;;;6.30;76.20;;;;;;2356769;57;21071;-77
2022/04/16 06:53:42;;;;;;;6.75;3.42;;;6.40;76.20;;;;;;2357049;57;21064;-77
2022/04/16 06:56:10;;;;;;;5.70;3.33;;;6.50;76.40;;;;;;2606299;52;21025;-78
2022/04/16 06:58:37;;;;;;;7.62;3.58;;;6.60;76.70;;;;;;2356612;57;21020;-77
2022/04/16 07:01:05;;;;;;;3.53;2.70;;;6.60;77.00;;;;;;2357286;57;21036;-75
2022/04/16 07:03:32;;;;;;;4.72;2.70;;;6.70;77.30;;;;;;2356944;57;21056;-74
2022/04/16 07:06:00;;;;;;;5.45;2.80;;;6.80;77.60;;;;;;2356929;57;21020;-74
2022/04/16 07:08:28;;;;;;;2.55;2.22;;;6.80;77.50;;;;;;2605882;53;21032;-74
2022/04/16 07:10:55;;;;;;;4.18;2.40;;;6.90;77.40;;;;;;2357200;57;21036;-74
2022/04/16 07:13:23;;;;;;;5.78;2.85;;;7.00;77.00;;;;;;2357174;57;21641;-74
2022/04/16 07:15:51;;;;;;;3.05;2.20;;;7.10;76.80;;;;;;2605107;52;21024;-74
2022/04/16 07:18:18;;;;;;;6.03;2.83;;;7.10;76.60;;;;;;2356464;57;21024;-75
2022/04/16 07:20:46;;;;;;;5.82;2.45;;;7.20;76.60;;;;;;2356894;57;21020;-74
2022/04/16 07:23:13;;;;;;;4.07;2.45;;;7.30;76.20;;;;;;2356779;57;21095;-74
2022/04/16 07:25:41;;;;;;;4.93;2.53;;;7.40;75.80;;;;;;2355441;57;21088;-74
2022/04/16 07:28:10;;;;;;;1.83;1.60;;;7.60;75.40;;;;;;2356531;57;21095;-77
2022/04/16 07:30:38;;;;;;;4.82;2.12;;;7.70;74.40;;;;;;2356635;57;21118;-76
2022/04/16 07:33:06;;;;;;;2.20;1.77;;;7.70;73.10;;;;;;2605505;53;21012;-73
2022/04/16 07:35:34;;;;;;;2.28;1.70;;;7.80;71.60;;;;;;2356086;57;21103;-73
2022/04/16 07:38:01;;;;;;;3.35;2.08;;;7.90;71.40;;;;;;2356010;57;21040;-71
2022/04/16 07:40:29;;;;;;;3.90;2.10;;;8.00;71.20;;;;;;2357529;57;21275;-75
2022/04/16 07:42:56;;;;;;;3.95;1.80;;;8.10;70.40;;;;;;2355736;57;21042;-72
2022/04/16 07:45:24;;;;;;;2.67;2.20;;;8.20;69.60;;;;;;2356639;57;21044;-72
2022/04/16 07:47:51;;;;;;;3.60;1.83;;;8.30;69.00;;;;;;2356241;57;21036;-73
2022/04/16 07:50:19;;;;;;;4.22;2.20;;;8.40;69.10;;;;;;2356030;57;21046;-72
2022/04/16 07:52:47;;;;;;;3.15;2.00;;;8.50;69.00;;;;;;2357052;57;21100;-72
2022/04/16 07:55:15;;;;;;;2.17;1.70;;;8.50;68.00;;;;;;2606554;52;21024;-72
2022/04/16 07:57:43;;;;;;;1.73;1.42;;;8.60;67.30;;;;;;2356331;57;21111;-72
2022/04/16 08:00:13;;;;;;;2.45;1.70;;;8.70;66.80;;;;;;2356671;57;21099;-72
2022/04/16 08:02:41;;;;;;;6.45;2.15;;;8.70;65.20;;;;;;2355572;57;21103;-72
2022/04/16 08:05:09;;;;;;;7.00;2.40;;;8.80;65.10;;;;;;2355060;57;21028;-75
2022/04/16 08:07:37;;;;;;;3.22;2.10;;;8.90;65.50;;;;;;2356223;57;21044;-73
2022/04/16 08:10:06;;;;;;;2.40;2.20;;;8.90;65.80;;;;;;2356662;57;21633;-75
2022/04/16 08:12:34;;;;;;;4.07;1.92;;;9.00;65.10;;;;;;2357113;57;21036;-73
2022/04/16 08:15:02;;;;;;;2.33;1.65;;;9.10;64.80;;;;;;2357081;57;21091;-73
2022/04/16 08:17:29;;;;;;;3.65;1.85;;;9.10;64.10;;;;;;2356964;57;21036;-73
2022/04/16 08:19:57;;;;;;;2.85;1.65;;;9.20;63.50;;;;;;2357167;57;21786;-78
2022/04/16 08:22:28;;;;;;;4.03;2.10;;;9.20;63.90;;;;;;2356182;57;21095;-73
2022/04/16 08:25:43;;;;;;;3.67;2.10;;;9.30;64.20;;;;;;2356349;57;21044;-73
2022/04/16 08:28:11;;;;;;;3.67;1.90;;;9.40;63.60;;;;;;2356022;57;21103;-75
2022/04/16 08:30:39;;;;;;;2.33;1.65;;;9.50;63.80;;;;;;2356716;57;21068;-74
2022/04/16 08:33:12;;;;;;;2.45;1.73;;;9.50;63.30;;;;;;2356684;57;21048;-74
2022/04/16 08:35:42;;;;;;;1.90;1.23;;;9.60;62.50;;;;;;2356899;57;21095;-73
2022/04/16 08:38:10;;;;;;;4.20;1.40;;;9.60;61.40;;;;;;2357732;57;21024;-73
2022/04/16 08:40:38;;;;;;;1.60;1.50;;;9.70;59.90;;;;;;2607498;53;21071;-74
2022/04/16 08:43:07;;;;;;;1.42;1.20;;;9.70;60.00;;;;;;2357743;57;21503;-73
2022/04/16 08:45:37;;;;;;;1.20;1.10;;;9.70;58.80;;;;;;2356918;57;21514;-76
2022/04/16 08:48:06;;;;;;;1.58;1.20;;;9.80;58.60;;;;;;2357381;57;21095;-73
2022/04/16 08:50:34;;;;;;;2.03;1.48;;;9.80;58.10;;;;;;2357943;57;21605;-74
2022/04/16 08:53:02;;;;;;;3.12;1.30;;;9.90;58.40;;;;;;2357617;57;21036;-73
2022/04/16 08:55:30;;;;;;;3.35;1.50;;;9.90;58.50;;;;;;2357223;57;21614;-74
2022/04/16 08:57:58;;;;;;;1.83;1.27;;;9.90;58.00;;;;;;2357860;57;21040;-75
2022/04/16 09:00:26;;;;;;;1.92;1.30;;;10.00;57.70;;;;;;2356064;57;21032;-72
2022/04/16 09:02:56;;;;;;;1.70;1.37;;;10.00;58.00;;;;;;2357895;57;21020;-73
2022/04/16 09:05:27;;;;;;;2.05;1.77;;;10.00;57.90;;;;;;2357724;57;21072;-73
2022/04/16 09:07:56;;;;;;;1.90;1.48;;;10.10;58.20;;;;;;2357926;57;21100;-73
2022/04/16 09:10:27;;;;;;;1.50;1.40;;;10.10;58.20;;;;;;2357846;57;21032;-73
2022/04/16 09:13:00;;;;;;;2.10;1.42;;;10.20;58.10;;;;;;2357423;57;21040;-74
2022/04/16 09:15:29;;;;;;;3.83;1.52;;;10.20;57.70;;;;;;2356982;57;21596;-73
2022/04/16 09:18:02;;;;;;;1.35;1.25;;;10.30;57.30;;;;;;2356721;57;21019;-73
2022/04/16 09:20:34;;;;;;;1.45;1.35;;;10.30;57.60;;;;;;2607789;53;21530;-73
2022/04/16 09:23:13;;;;;;;1.97;1.43;;;10.30;57.70;;;;;;2358170;57;21697;-73
2022/04/16 09:25:43;;;;;;;1.45;1.12;;;10.40;57.80;;;;;;2357140;57;21047;-76
2022/04/16 09:28:13;;;;;;;1.50;1.40;;;10.40;57.60;;;;;;2358042;57;21043;-72
2022/04/16 09:30:50;;;;;;;3.45;1.30;;;10.50;57.00;;;;;;2357948;57;21031;-73
2022/04/16 09:33:18;;;;;;;2.15;1.55;;;10.50;56.90;;;;;;2357122;57;21044;-76
2022/04/16 09:35:46;;;;;;;2.53;1.30;;;10.60;56.50;;;;;;2356027;57;21040;-73
2022/04/16 09:38:14;;;;;;;3.35;2.17;;;10.60;56.00;;;;;;2356051;57;21032;-73
2022/04/16 09:40:45;;;;;;;1.50;1.20;;;10.70;55.60;;;;;;2356976;57;21302;-72
2022/04/16 09:43:13;;;;;;;3.03;1.70;;;10.70;55.00;;;;;;2356876;57;21503;-73
2022/04/16 09:45:42;;;;;;;2.10;1.30;;;10.80;55.20;;;;;;2356202;57;21020;-73
2022/04/16 09:48:11;;;;;;;7.45;1.42;;;10.80;55.10;;;;;;2355993;57;21075;-74
2022/04/16 09:50:40;;;;;;;1.40;1.30;;;10.80;53.00;;;;;;2356892;57;21115;-75
2022/04/16 09:53:09;;;;;;;2.62;1.37;;;10.80;52.90;;;;;;2356571;57;21044;-76
2022/04/16 09:55:37;;;;;;;1.83;1.30;;;10.80;52.80;;;;;;2356537;57;21013;-73
2022/04/16 09:58:06;;;;;;;5.65;1.50;;;10.90;52.90;;;;;;2606097;53;21119;-73
2022/04/16 10:00:36;;;;;;;1.85;1.67;;;10.90;53.30;;;;;;2356418;57;21044;-73
2022/04/16 10:03:08;;;;;;;1.60;1.40;;;10.90;53.40;;;;;;2356852;57;21027;-75
2022/04/16 10:05:35;;;;;;;2.70;1.58;;;11.00;53.70;;;;;;2355134;57;21092;-73
2022/04/16 10:08:05;;;;;;;2.08;1.87;;;10.90;53.80;;;;;;2357445;57;21097;-73
2022/04/16 10:10:40;;;;;;;3.00;2.10;;;11.00;53.60;;;;;;2357182;57;21021;-73
2022/04/16 10:13:11;;;;;;;2.60;1.50;;;11.00;53.60;;;;;;2606791;53;21103;-73
2022/04/16 10:15:59;;;;;;;3.22;2.37;;;11.10;54.30;;;;;;2357000;57;21020;-73
2022/04/16 10:18:27;;;;;;;3.90;2.37;;;11.20;53.90;;;;;;2357261;57;21103;-73
2022/04/16 10:20:56;;;;;;;4.00;2.20;;;11.30;54.00;;;;;;2357668;57;21032;-74
2022/04/16 10:23:28;;;;;;;5.37;2.20;;;11.30;53.50;;;;;;2356915;57;21072;-73
2022/04/16 10:26:04;;;;;;;3.47;1.70;;;11.40;53.80;;;;;;2356972;57;21111;-73
2022/04/16 10:28:39;;;;;;;3.22;1.83;;;11.50;53.80;;;;;;2357419;57;21096;-73
2022/04/16 10:31:19;;;;;;;4.45;2.10;;;11.60;52.30;;;;;;2606447;53;21020;-73
2022/04/16 10:33:56;;;;;;;3.20;1.80;;;11.70;52.00;;;;;;2356234;57;21088;-74
2022/04/16 10:36:27;;;;;;;2.65;1.70;;;11.70;51.90;;;;;;2356613;57;21035;-75
2022/04/16 10:38:54;;;;;;;1.80;1.25;;;11.80;52.40;;;;;;2356508;57;21115;-75
2022/04/16 10:41:25;;;;;;;2.75;1.90;;;11.80;51.80;;;;;;2357005;57;21179;-74
2022/04/16 10:43:55;;;;;;;3.20;1.62;;;11.90;51.40;;;;;;2357036;57;21020;-75
2022/04/16 10:46:24;;;;;;;2.55;1.30;;;11.90;51.10;;;;;;2356785;57;21048;-75
2022/04/16 10:48:53;;;;;;;3.75;1.75;;;12.00;51.00;;;;;;2606842;53;21112;-77
2022/04/16 10:51:22;;;;;;;2.45;1.27;;;12.10;50.90;;;;;;2606178;53;21048;-75
2022/04/16 10:53:50;;;;;;;2.35;1.35;;;12.20;50.20;;;;;;2356963;57;21033;-75
2022/04/16 10:56:20;;;;;;;1.80;1.33;;;12.30;48.90;;;;;;2356579;57;21549;-75
2022/04/16 10:58:59;;;;;;;2.33;1.42;;;12.30;48.70;;;;;;2356125;57;21100;-75
2022/04/16 11:01:30;;;;;;;3.08;1.60;;;12.30;49.30;;;;;;2356971;57;21048;-75
2022/04/16 11:03:58;;;;;;;1.85;1.20;;;12.40;48.30;;;;;;2606325;53;21032;-75
2022/04/16 11:06:35;;;;;;;1.27;1.17;;;12.50;47.90;;;;;;2356553;57;21606;-76
2022/04/16 11:09:03;;;;;;;1.92;1.33;;;12.50;48.00;;;;;;2356083;57;21091;-75
2022/04/16 11:11:30;;;;;;;3.00;1.52;;;12.60;48.40;;;;;;2357327;57;21159;-75
2022/04/16 11:14:00;;;;;;;1.50;1.20;;;12.70;48.50;;;;;;2357087;57;21036;-76
2022/04/16 11:16:28;;;;;;;2.40;1.50;;;12.80;47.70;;;;;;2356368;57;22223;-75
2022/04/16 11:18:55;;;;;;;1.55;1.40;;;12.80;46.90;;;;;;2356697;57;21087;-77
2022/04/16 11:21:29;;;;;;;1.98;1.55;;;12.90;47.40;;;;;;2356889;57;21035;-77
2022/04/16 11:24:03;;;;;;;2.60;1.90;;;13.00;47.30;;;;;;2356749;57;21523;-78
2022/04/16 11:34:55;;;;;;;2.47;1.60;;;13.30;46.80;;;;;;2547777;53;21143;-77
2022/04/16 11:37:23;;;;;;;2.65;1.80;;;13.40;47.10;;;;;;2356646;57;21067;-76
2022/04/16 11:40:00;;;;;;;3.55;2.12;;;13.50;48.10;;;;;;2606601;53;21000;-76
2022/04/16 11:42:29;;;;;;;2.85;1.95;;;13.60;48.20;;;;;;2356647;57;21068;-76
2022/04/16 11:44:57;;;;;;;2.12;1.50;;;13.70;47.80;;;;;;2356387;57;21040;-77
2022/04/16 11:47:26;;;;;;;3.05;1.80;;;13.80;46.80;;;;;;2605692;52;21559;-76
2022/04/16 11:49:56;;;;;;;1.87;1.70;;;13.90;46.60;;;;;;2356327;57;21110;-77
2022/04/16 11:52:25;;;;;;;2.95;2.17;;;13.90;46.60;;;;;;2355965;57;21028;-76
2022/04/16 11:55:02;;;;;;;2.67;2.10;;;14.00;46.40;;;;;;2356068;57;21036;-76
2022/04/16 11:57:30;;;;;;;3.83;1.90;;;14.00;46.00;;;;;;2355220;56;21078;-76
2022/04/16 11:59:58;;;;;;;3.25;2.20;;;14.10;46.70;;;;;;2605867;53;21570;-76
2022/04/16 12:02:32;;;;;;;2.37;2.00;;;14.10;46.80;;;;;;2355542;57;21067;-77
2022/04/16 12:05:09;;;;;;;;;;;14.20;46.00;;;;;;2360047;57;21111;-76
2022/04/16 12:07:39;;;;;;;3.30;1.83;;;14.20;46.40;;;;;;2356597;57;20069;-76
2022/04/16 12:10:08;;;;;;;3.25;2.33;;;14.30;45.40;;;;;;2606372;53;21087;-76
2022/04/16 12:12:46;;;;;;;3.37;2.30;;;14.30;45.50;;;;;;2356907;57;21044;-77
2022/04/16 12:15:19;;;;;;;2.45;2.00;;;14.40;46.60;;;;;;2355296;57;21035;-76
2022/04/16 12:17:46;;;;;;;2.75;1.95;;;14.50;46.30;;;;;;2356879;57;21075;-77
2022/04/16 12:20:14;;;;;;;2.65;1.83;;;14.50;46.40;;;;;;2355787;57;21040;-77
2022/04/16 12:22:49;;;;;;;2.62;2.25;;;14.60;46.40;;;;;;2356615;57;21100;-77
2022/04/16 12:25:19;;;;;;;3.00;1.90;;;14.60;44.80;;;;;;2356639;57;21668;-76
2022/04/16 12:27:47;;;;;;;3.17;1.87;;;14.70;45.90;;;;;;2606643;53;21031;-77
2022/04/16 12:30:20;;;;;;;4.03;2.25;;;14.80;45.40;;;;;;2356583;57;21036;-77
2022/04/16 12:32:59;;;;;;;3.50;2.33;;;14.80;45.00;;;;;;2604686;53;21048;-76
2022/04/16 12:35:26;;;;;;;2.97;2.20;;;14.90;45.70;;;;;;2355146;57;21304;-77
2022/04/16 12:37:55;;;;;;;2.58;2.10;;;15.00;45.20;;;;;;2355545;57;21028;-75
2022/04/16 12:40:24;;;;;;;4.30;2.60;;;15.00;45.30;;;;;;2356671;57;21072;-76
2022/04/16 12:42:52;;;;;;;2.55;2.17;;;15.00;45.20;;;;;;2356542;57;21111;-77
2022/04/16 12:45:20;;;;;;;6.07;1.90;;;15.10;44.80;;;;;;2355585;57;21027;-77
2022/04/16 12:47:48;;;;;;;4.53;2.65;;;15.10;44.00;;;;;;2356609;57;21019;-76
2022/04/16 12:50:16;;;;;;;2.97;2.30;;;15.10;44.40;;;;;;2356330;57;21656;-77
2022/04/16 12:52:44;;;;;;;2.80;2.10;;;15.20;45.70;;;;;;2356606;57;21023;-78
2022/04/16 12:55:12;;;;;;;2.60;2.00;;;15.20;45.30;;;;;;2355631;57;21024;-76
2022/04/16 12:57:40;;;;;;;2.28;2.08;;;15.30;44.80;;;;;;2356064;57;21032;-77
2022/04/16 13:00:11;;;;;;;3.08;2.10;;;15.40;44.40;;;;;;2606933;53;21052;-76
2022/04/16 13:02:42;;;;;;;2.58;1.87;;;15.40;44.30;;;;;;2357104;57;21120;-75
2022/04/16 13:05:10;;;;;;;4.00;2.28;;;15.40;44.10;;;;;;2356756;57;21016;-75
2022/04/16 13:07:39;;;;;;;3.00;2.40;;;15.40;43.90;;;;;;2355499;57;21008;-75
2022/04/16 13:10:09;;;;;;;3.65;2.40;;;15.40;44.00;;;;;;2353675;57;21124;-77
2022/04/16 13:12:37;;;;;;;2.25;2.00;;;15.50;43.50;;;;;;2604986;53;21068;-78
2022/04/16 13:15:07;;;;;;;4.00;2.67;;;15.50;42.90;;;;;;2354644;57;21032;-76
2022/04/16 13:17:35;;;;;;;4.07;1.77;;;15.50;42.70;;;;;;2354394;57;21040;-76
2022/04/16 13:20:04;;;;;;;2.40;2.05;;;15.60;43.10;;;;;;2604086;53;21043;-75